Time;durP1;ratioP1;P1;durP2;ratioP2;P2;SDS_P1;SDS_P2;PMS_P1;PMS_P2;Temp;Humidity;BMP_temperature;BMP_pressure;BME280_temperature;BME280_humidity;BME280_pressure;Samples;Min_cycle;Max_cycle;Signal;HPM_P1;HPM_P2
2023/04/02 00:01:01;;;;;;;;;6.00;6.00;;;;;12.74;60.10;100851.00;5060071;28;45326;-78
2023/04/02 00:03:44;;;;;;;;;7.00;7.00;;;;;10.02;59.96;100420.13;5060102;28;45251;-77
2023/04/02 00:06:29;;;;;;;;;9.33;8.00;;;;;12.73;59.57;100862.66;5059332;28;45423;-75
2023/04/02 00:08:57;;;;;;;;;6.67;6.67;;;;;12.69;59.81;100853.31;5041776;28;47658;-78
2023/04/02 00:11:34;;;;;;;;;7.33;7.00;;;;;12.72;59.80;100856.50;5042896;28;45806;-76
2023/04/02 00:14:01;;;;;;;;;9.00;7.00;;;;;12.04;59.37;100757.63;5062983;28;45297;-74
2023/04/02 00:16:27;;;;;;;;;8.67;8.67;;;;;12.64;59.65;100860.94;5060087;28;45278;-75
2023/04/02 00:18:57;;;;;;;;;7.33;7.33;;;;;12.68;59.50;100876.47;5058317;28;45735;-78
2023/04/02 00:21:33;;;;;;;;;6.33;5.67;;;;;12.43;59.29;100847.94;5059269;28;45364;-76
2023/04/02 00:24:00;;;;;;;;;7.00;7.00;;;;;12.11;59.13;100796.00;5041761;28;45482;-76
2023/04/02 00:26:36;;;;;;;;;5.00;5.00;;;;;12.61;59.17;100882.56;5060350;28;45346;-76
2023/04/02 00:29:04;;;;;;;;;6.33;6.33;;;;;12.57;59.11;100878.53;5058608;28;45478;-76
2023/04/02 00:31:31;;;;;;;;;6.00;5.00;;;;;12.52;59.79;100884.34;5040603;28;45791;-76
2023/04/02 00:33:59;;;;;;;;;6.00;6.00;;;;;12.52;60.25;100881.66;5058521;28;45556;-77
2023/04/02 00:36:29;;;;;;;;;9.33;7.00;;;;;12.51;60.32;100881.81;5059419;28;45257;-76
2023/04/02 00:38:58;;;;;;;;;10.00;9.00;;;;;12.35;60.10;100890.50;5040885;28;48845;-77
2023/04/02 00:41:28;;;;;;;;;6.67;6.67;;;;;12.26;60.56;100852.28;5058721;28;45454;-77
2023/04/02 00:43:56;;;;;;;;;6.67;5.33;;;;;12.36;60.04;100877.00;5040808;28;45458;-76
2023/04/02 00:46:29;;;;;;;;;8.33;7.00;;;;;12.27;60.20;100869.09;5059417;28;45423;-76
2023/04/02 00:48:58;;;;;;;;;9.33;8.00;;;;;12.32;60.35;100894.31;5060458;28;45971;-77
2023/04/02 00:51:33;;;;;;;;;9.00;7.67;;;;;12.31;60.08;100892.63;5058962;28;45284;-77
2023/04/02 00:54:03;;;;;;;;;7.67;6.33;;;;;12.28;60.25;100890.28;5058563;28;45333;-78
2023/04/02 00:56:42;;;;;;;;;6.67;6.67;;;;;12.32;60.45;100894.31;5040437;28;45361;-75
2023/04/02 00:59:18;;;;;;;;;8.33;7.00;;;;;12.32;60.32;100894.31;5040288;28;48378;-77
2023/04/02 01:01:44;;;;;;;;;6.33;5.67;;;;;12.34;60.73;100896.81;5040235;28;46489;-75
2023/04/02 01:04:33;;;;;;;;;9.33;8.00;;;;;12.22;60.56;100892.72;5058055;28;45459;-76
2023/04/02 01:07:03;;;;;;;;;9.33;9.33;;;;;12.15;60.65;100881.81;5058211;28;45560;-76
2023/04/02 01:09:48;;;;;;;;;6.00;6.00;;;;;11.85;60.56;100859.00;5057642;28;45953;-77
2023/04/02 01:12:34;;;;;;;;;8.00;8.00;;;;;10.72;60.60;100650.84;5057987;28;45366;-76
2023/04/02 01:15:11;;;;;;;;;8.67;8.00;;;;;12.24;60.90;100901.41;5058007;28;45488;-75
2023/04/02 01:18:16;;;;;;;;;8.67;6.00;;;;;12.33;61.19;100906.66;5040221;28;45490;-76
2023/04/02 01:20:58;;;;;;;;;12.00;7.00;;;;;12.18;61.07;100882.34;5058797;28;46355;-78
2023/04/02 01:24:01;;;;;;;;;8.33;7.00;;;;;12.39;60.78;100915.88;5058839;28;45401;-76
2023/04/02 01:26:56;;;;;;;;;6.67;5.67;;;;;12.17;61.04;100885.16;5047409;28;45667;-77
2023/04/02 01:29:24;;;;;;;;;6.33;6.00;;;;;12.34;61.24;100910.16;5040042;28;45263;-77
2023/04/02 01:31:53;;;;;;;;;18.00;15.67;;;;;12.25;61.07;100900.41;5057973;28;46745;-77
2023/04/02 01:34:22;;;;;;;;;7.00;7.00;;;;;12.34;61.89;100918.16;5039406;28;45361;-76
2023/04/02 01:36:59;;;;;;;;;4.67;4.67;;;;;12.38;62.25;100931.03;5057704;28;45301;-77
2023/04/02 01:39:38;;;;;;;;;6.33;5.33;;;;;12.21;63.25;100913.19;5039687;28;45360;-75
2023/04/02 01:42:10;;;;;;;;;5.67;4.33;;;;;12.26;62.76;100928.75;5040312;28;48325;-77
2023/04/02 01:44:42;;;;;;;;;4.67;3.67;;;;;12.30;62.32;100927.44;5058872;28;45514;-76
2023/04/02 01:47:14;;;;;;;;;5.00;5.00;;;;;12.29;62.67;100931.09;5058256;28;45396;-78
2023/04/02 01:49:41;;;;;;;;;5.67;4.33;;;;;12.15;62.02;100913.78;5057493;28;45491;-76
2023/04/02 01:52:07;;;;;;;;;3.67;3.67;;;;;12.28;62.34;100935.59;5057053;28;45698;-76
2023/04/02 01:54:36;;;;;;;;;3.00;3.00;;;;;11.78;61.92;100863.22;5042724;28;45409;-77
2023/04/02 01:57:02;;;;;;;;;3.00;3.00;;;;;11.83;62.18;100874.31;5044294;28;45267;-77
2023/04/02 01:59:32;;;;;;;;;3.00;3.00;;;;;12.12;62.04;100932.75;5039521;28;45593;-77
2023/04/02 02:02:02;;;;;;;;;2.00;2.00;;;;;12.23;62.02;100929.88;5057466;28;45903;-78
2023/04/02 02:04:29;;;;;;;;;3.00;2.00;;;;;12.10;61.75;100930.22;5057144;28;45463;-77
2023/04/02 02:06:59;;;;;;;;;3.67;3.67;;;;;11.72;62.50;100859.31;5039127;28;45464;-76
2023/04/02 02:09:28;;;;;;;;;3.00;3.00;;;;;12.10;61.69;100916.06;5057733;28;45257;-77
2023/04/02 02:11:56;;;;;;;;;4.33;2.00;;;;;12.25;62.03;100946.56;5039162;28;46700;-76
2023/04/02 02:14:24;;;;;;;;;3.00;3.00;;;;;12.22;61.79;100944.22;5038952;28;45414;-76
2023/04/02 02:16:55;;;;;;;;;2.33;2.33;;;;;11.85;62.04;100897.16;5039509;28;45546;-76
2023/04/02 02:19:20;;;;;;;;;3.67;3.67;;;;;12.12;62.48;100951.41;5040769;28;45432;-75
2023/04/02 02:21:55;;;;;;;;;2.33;2.33;;;;;12.13;62.24;100953.91;5055775;28;46180;-77
2023/04/02 02:24:27;;;;;;;;;4.00;2.00;;;;;12.03;62.07;100944.31;5057257;28;45419;-76
2023/04/02 02:27:24;;;;;;;;;3.67;2.33;;;;;11.80;62.43;100917.19;5039035;28;45183;-76
2023/04/02 02:29:55;;;;;;;;;3.33;2.67;;;;;11.33;63.30;100829.38;5057303;28;45549;-77
2023/04/02 02:32:26;;;;;;;;;1.33;1.33;;;;;11.88;63.55;100936.81;5056680;28;45760;-76
2023/04/02 02:34:59;;;;;;;;;1.67;1.67;;;;;12.00;64.11;100973.91;5056347;28;45796;-76
2023/04/02 02:37:29;;;;;;;;;1.33;1.33;;;;;11.97;64.85;100974.19;5057014;28;45522;-77
2023/04/02 02:39:58;;;;;;;;;2.00;2.00;;;;;11.54;65.28;100915.19;5038932;28;45487;-77
2023/04/02 02:42:29;;;;;;;;;3.00;3.00;;;;;11.90;65.13;100989.09;5056586;28;45821;-75
2023/04/02 02:44:57;;;;;;;;;4.00;4.00;;;;;11.33;65.68;100903.06;5056704;28;45285;-77
2023/04/02 02:47:28;;;;;;;;;2.00;2.00;;;;;11.63;65.74;100972.06;5056741;28;45506;-76
2023/04/02 02:49:57;;;;;;;;;2.00;2.00;;;;;11.78;66.23;101002.59;5038664;28;45563;-76
2023/04/02 02:52:31;;;;;;;;;2.00;2.00;;;;;11.75;67.04;101005.50;5056651;28;45643;-76
2023/04/02 02:55:03;;;;;;;;;3.33;3.00;;;;;11.68;67.84;100996.44;5056527;28;45529;-77
2023/04/02 02:57:39;;;;;;;;;2.00;2.00;;;;;10.26;67.69;100754.38;5038704;28;45505;-77
2023/04/02 03:00:08;;;;;;;;;5.00;2.00;;;;;11.79;68.25;101016.75;5038639;28;45271;-74
2023/04/02 03:02:36;;;;;;;;;1.00;1.00;;;;;11.76;68.79;101004.53;5056277;28;45795;-76
2023/04/02 03:05:01;;;;;;;;;4.67;3.00;;;;;11.73;68.77;100988.84;5037584;28;45348;-78
2023/04/02 03:07:29;;;;;;;;;4.00;3.00;;;;;11.69;68.36;101013.25;5056401;28;45238;-76
2023/04/02 03:10:21;;;;;;;;;2.00;2.00;;;;;10.83;68.75;100876.72;5056968;28;45254;-77
2023/04/02 03:13:08;;;;;;;;;2.33;2.00;;;;;11.74;68.65;101017.16;5038285;28;46541;-76
2023/04/02 03:15:41;;;;;;;;;2.33;2.33;;;;;11.78;68.52;101020.38;5058448;28;45421;-75
2023/04/02 03:18:17;;;;;;;;;5.00;2.00;;;;;11.76;68.79;101017.84;5056921;28;45364;-77
2023/04/02 03:20:57;;;;;;;;;2.00;2.00;;;;;11.70;68.11;101025.59;5056294;28;45343;-77
2023/04/02 03:23:37;;;;;;;;;1.67;1.67;;;;;11.62;68.23;101010.34;5056129;28;46848;-78
2023/04/02 03:26:15;;;;;;;;;3.00;3.00;;;;;11.66;67.97;101013.56;5056072;28;45274;-76
2023/04/02 03:28:48;;;;;;;;;1.00;1.00;;;;;11.53;67.75;101009.38;5056319;28;45455;-77
2023/04/02 03:31:25;;;;;;;;;2.00;2.00;;;;;11.60;68.11;101014.94;5056493;28;45541;-76
2023/04/02 03:33:57;;;;;;;;;1.00;1.00;;;;;11.61;67.73;101031.75;5059708;28;46299;-76
2023/04/02 03:36:42;;;;;;;;;1.67;1.67;;;;;11.63;68.02;101041.31;5063120;28;45394;-75
2023/04/02 03:39:16;;;;;;;;;4.00;4.00;;;;;11.45;67.63;101013.75;5062310;28;45415;-76
2023/04/02 03:42:04;;;;;;;;;2.00;2.00;;;;;11.51;67.72;101043.28;5042541;28;45234;-78
2023/04/02 03:44:37;;;;;;;;;4.33;2.67;;;;;11.40;67.90;101013.31;5059212;28;45715;-75
2023/04/02 03:47:37;;;;;;;;;3.00;3.00;;;;;11.56;67.83;101054.34;5059392;28;45520;-77
2023/04/02 03:50:30;;;;;;;;;3.00;3.00;;;;;11.53;66.39;101053.78;5026788;28;45706;-75
2023/04/02 03:52:57;;;;;;;;;5.00;3.00;;;;;11.51;67.73;101058.41;5059401;28;45226;-77
2023/04/02 03:55:28;;;;;;;;;3.00;3.00;;;;;11.34;67.11;101035.19;5059201;28;47117;-74
2023/04/02 03:58:03;;;;;;;;;5.33;5.33;;;;;11.37;65.99;101046.38;5041126;28;46275;-75
2023/04/02 04:00:59;;;;;;;;;3.67;3.67;;;;;11.15;66.35;101047.50;5059108;28;45527;-77
2023/04/02 04:03:31;;;;;;;;;5.00;5.00;;;;;10.36;66.48;100935.91;5059111;28;45831;-77
2023/04/02 04:05:59;;;;;;;;;5.67;4.67;;;;;11.26;67.54;101071.34;5040072;28;48767;-77
2023/04/02 04:08:33;;;;;;;;;5.33;5.33;;;;;10.62;66.82;100970.78;5059021;28;45277;-74
2023/04/02 04:11:06;;;;;;;;;5.67;5.33;;;;;11.23;67.50;101079.59;5059117;28;45326;-77
2023/04/02 04:13:40;;;;;;;;;7.00;7.00;;;;;11.25;67.14;101082.97;5060070;28;45863;-76
2023/04/02 04:16:10;;;;;;;;;6.00;6.00;;;;;10.47;67.29;100956.22;5059006;28;45360;-77
2023/04/02 04:18:55;;;;;;;;;7.00;7.00;;;;;11.09;66.61;101057.88;5058630;28;45185;-77
2023/04/02 04:21:29;;;;;;;;;7.00;7.00;;;;;11.15;66.64;101070.63;5058539;28;45383;-77
2023/04/02 04:24:02;;;;;;;;;7.67;6.00;;;;;10.97;67.19;101049.19;5059067;28;45236;-78
2023/04/02 04:26:52;;;;;;;;;5.67;5.33;;;;;11.23;67.11;101090.25;5058362;28;46405;-76
2023/04/02 04:29:36;;;;;;;;;8.00;7.00;;;;;11.31;67.00;101094.03;5040685;28;46177;-77
2023/04/02 04:32:25;;;;;;;;;7.67;7.67;;;;;11.30;66.80;101093.19;5059554;28;45514;-76
2023/04/02 04:34:57;;;;;;;;;10.33;8.67;;;;;11.16;66.90;101082.94;5040498;28;45400;-78
2023/04/02 04:37:27;;;;;;;;;7.33;7.33;;;;;10.66;66.55;100981.97;5040788;28;47374;-78
2023/04/02 04:39:57;;;;;;;;;15.33;11.00;;;;;11.32;66.71;101111.69;5040208;28;45617;-76
2023/04/02 04:42:28;;;;;;;;;9.00;9.00;;;;;10.89;66.31;101038.41;5058322;28;45253;-76
2023/04/02 04:45:05;;;;;;;;;12.00;11.00;;;;;10.94;66.62;101057.44;5039799;28;45593;-78
2023/04/02 04:47:34;;;;;;;;;9.00;9.00;;;;;11.19;66.43;101099.47;5058359;28;45629;-78
2023/04/02 04:50:08;;;;;;;;;11.00;11.00;;;;;11.33;66.09;101114.19;5058002;28;45380;-77
2023/04/02 04:52:37;;;;;;;;;11.33;9.00;;;;;11.02;66.27;101068.25;5040055;28;45292;-78
2023/04/02 04:55:37;;;;;;;;;11.67;10.00;;;;;11.27;66.58;101130.72;5040424;28;46031;-76
2023/04/02 04:58:13;;;;;;;;;2.00;2.00;;;;;11.26;66.28;101132.56;5058122;28;46387;-77
2023/04/02 05:00:54;;;;;;;;;13.00;11.00;;;;;11.14;66.60;101146.94;5058714;28;45247;-76
2023/04/02 05:03:38;;;;;;;;;11.67;11.00;;;;;11.10;66.98;101150.88;5058435;28;45237;-76
2023/04/02 05:06:31;;;;;;;;;9.33;9.33;;;;;10.90;67.13;101110.09;5039719;28;45749;-77
2023/04/02 05:09:06;;;;;;;;;15.33;14.00;;;;;11.15;66.85;101156.63;5039838;28;48562;-76
2023/04/02 05:11:41;;;;;;;;;11.00;9.00;;;;;10.33;66.62;101034.50;5040001;28;45329;-75
2023/04/02 05:14:35;;;;;;;;;11.67;10.67;;;;;11.00;66.89;101150.00;5039937;28;45503;-77
2023/04/02 05:17:08;;;;;;;;;12.67;12.67;;;;;10.99;66.69;101161.63;5020168;28;45652;-76
2023/04/02 05:19:49;;;;;;;;;14.67;12.67;;;;;10.97;66.69;101177.72;5058760;28;46221;-76
2023/04/02 05:22:36;;;;;;;;;12.33;12.33;;;;;10.90;66.49;101175.75;5059015;28;45350;-77
2023/04/02 05:25:27;;;;;;;;;12.00;11.00;;;;;10.93;66.78;101176.31;5041391;28;45443;-77
2023/04/02 05:27:59;;;;;;;;;12.00;10.67;;;;;10.98;67.15;101176.75;5058636;28;45278;-76
2023/04/02 05:30:27;;;;;;;;;14.00;12.33;;;;;10.94;66.91;101201.09;5057629;28;46165;-77
2023/04/02 05:32:56;;;;;;;;;16.00;10.33;;;;;10.88;66.51;101188.34;5057244;28;45506;-77
2023/04/02 05:35:28;;;;;;;;;12.67;9.00;;;;;10.83;67.17;101175.47;5038938;28;45483;-78
2023/04/02 05:37:54;;;;;;;;;12.67;11.67;;;;;10.91;67.09;101180.09;5057872;28;45293;-76
2023/04/02 05:40:26;;;;;;;;;16.33;13.00;;;;;10.87;66.75;101192.00;5035412;28;47209;-76
2023/04/02 05:42:52;;;;;;;;;14.33;12.00;;;;;10.85;67.17;101199.25;5037658;28;45340;-76
2023/04/02 05:45:40;;;;;;;;;13.00;12.00;;;;;10.79;67.09;101189.13;5037466;28;45309;-78
2023/04/02 05:48:16;;;;;;;;;11.33;10.33;;;;;10.58;67.21;101179.41;5020101;28;45327;-77
2023/04/02 05:50:46;;;;;;;;;14.00;13.00;;;;;10.80;66.87;101217.41;5036722;28;47039;-77
2023/04/02 05:53:11;;;;;;;;;9.67;9.33;;;;;10.85;66.92;101217.88;5037430;28;45486;-77
2023/04/02 05:55:52;;;;;;;;;11.33;10.00;;;;;10.80;66.86;101207.63;5036290;28;45341;-76
2023/04/02 05:58:40;;;;;;;;;15.00;12.00;;;;;10.86;67.21;101227.53;5037342;28;45528;-76
2023/04/02 06:01:19;;;;;;;;;9.00;8.00;;;;;10.72;67.56;101228.72;5018963;28;47468;-77
2023/04/02 06:03:57;;;;;;;;;14.00;13.00;;;;;10.72;67.30;101233.22;5056661;28;45198;-76
2023/04/02 06:06:44;;;;;;;;;10.67;10.67;;;;;10.49;67.70;101197.97;5057161;28;45556;-76
2023/04/02 06:09:27;;;;;;;;;12.00;10.00;;;;;10.70;67.74;101227.19;5058031;28;45301;-78
2023/04/02 06:12:16;;;;;;;;;10.00;9.00;;;;;10.72;67.64;101238.53;5056882;28;46463;-77
2023/04/02 06:14:41;;;;;;;;;9.67;8.67;;;;;10.52;67.63;101217.16;5056907;28;45490;-76
2023/04/02 06:17:13;;;;;;;;;11.67;8.67;;;;;10.46;67.69;101216.84;5057158;28;45310;-78
2023/04/02 06:19:38;;;;;;;;;10.67;10.00;;;;;10.66;67.76;101238.09;5057992;28;45352;-77
2023/04/02 06:22:15;;;;;;;;;9.67;9.33;;;;;10.78;67.66;101241.50;5056649;28;46152;-75
2023/04/02 06:24:44;;;;;;;;;11.33;9.67;;;;;10.58;67.40;101213.97;5057042;28;45476;-77
2023/04/02 06:27:18;;;;;;;;;11.33;11.33;;;;;10.19;67.63;101154.41;5056959;28;45313;-77
2023/04/02 06:29:47;;;;;;;;;9.67;8.00;;;;;10.73;67.61;101248.19;5039254;28;45531;-78
2023/04/02 06:32:12;;;;;;;;;9.33;8.00;;;;;10.56;66.63;101226.56;5056517;28;46283;-77
2023/04/02 06:34:40;;;;;;;;;10.33;10.00;;;;;10.69;67.37;101249.44;5056632;28;45483;-78
2023/04/02 06:37:28;;;;;;;;;8.00;8.00;;;;;10.79;67.43;101259.13;5057070;28;45393;-77
2023/04/02 06:39:55;;;;;;;;;9.00;9.00;;;;;10.75;67.08;101264.84;5056990;28;45375;-76
2023/04/02 06:42:29;;;;;;;;;9.33;9.00;;;;;10.75;67.64;101268.34;5038351;28;47090;-77
2023/04/02 06:44:55;;;;;;;;;8.33;8.33;;;;;10.39;67.55;101210.38;5038515;28;45278;-76
2023/04/02 06:47:36;;;;;;;;;9.33;8.00;;;;;10.41;67.29;101211.06;5056427;28;45558;-77
2023/04/02 06:50:30;;;;;;;;;13.33;10.33;;;;;10.86;67.39;101275.41;5028077;28;45437;-74
2023/04/02 06:52:58;;;;;;;;;9.67;8.33;;;;;10.80;66.77;101270.63;5048251;28;47587;-76
2023/04/02 06:56:01;;;;;;;;;10.67;10.67;;;;;10.84;67.20;101277.38;5063698;28;45629;-76
2023/04/02 06:58:27;;;;;;;;;9.67;8.67;;;;;10.69;66.67;101260.06;5037311;28;45442;-77
2023/04/02 07:00:52;;;;;;;;;11.33;10.00;;;;;10.55;66.88;101232.84;5066751;28;45426;-77
2023/04/02 07:03:30;;;;;;;;;8.33;8.33;;;;;10.85;66.84;101289.69;5058724;28;48909;-75
2023/04/02 07:05:57;;;;;;;;;7.00;7.00;;;;;10.52;67.05;101241.09;5048326;28;45527;-77
2023/04/02 07:08:23;;;;;;;;;14.67;12.00;;;;;10.88;66.79;101295.59;5055537;28;45436;-76
2023/04/02 07:10:48;;;;;;;;;10.67;9.00;;;;;10.16;66.85;101186.56;5077642;28;45229;-77
2023/04/02 07:13:20;;;;;;;;;12.67;10.33;;;;;10.72;67.16;101315.66;5052440;28;45681;-77
2023/04/02 07:15:49;;;;;;;;;12.67;10.33;;;;;10.54;67.51;101313.59;5079335;28;45463;-78
2023/04/02 07:18:22;;;;;;;;;12.00;10.33;;;;;10.64;67.62;101319.81;5061012;28;45749;-78
2023/04/02 07:20:47;;;;;;;;;11.67;9.33;;;;;10.54;67.75;101318.06;5041844;28;45245;-76
2023/04/02 07:23:13;;;;;;;;;10.00;8.67;;;;;10.33;67.69;101297.63;5048317;28;45252;-78
2023/04/02 07:25:38;;;;;;;;;7.33;6.33;;;;;10.27;67.40;101281.38;5038630;28;45313;-77
2023/04/02 07:28:05;;;;;;;;;9.00;9.00;;;;;10.51;67.74;101328.94;5051033;28;45408;-81
2023/04/02 07:30:30;;;;;;;;;10.00;9.33;;;;;10.56;67.39;101337.38;5032658;28;45559;-81
2023/04/02 07:32:56;;;;;;;;;15.33;10.33;;;;;10.43;67.52;101311.00;5053857;28;46788;-79
2023/04/02 07:35:21;;;;;;;;;10.33;8.00;;;;;10.65;67.11;101349.91;5078659;28;45408;-79
2023/04/02 07:37:47;;;;;;;;;13.67;10.33;;;;;10.58;67.24;101341.59;5051755;28;45453;-77
2023/04/02 07:40:19;;;;;;;;;13.00;12.67;;;;;10.72;67.23;101343.09;5028168;28;45663;-77
2023/04/02 07:42:45;;;;;;;;;12.67;11.00;;;;;10.70;66.51;101338.88;5076465;28;45562;-80
2023/04/02 07:45:10;;;;;;;;;11.67;10.33;;;;;10.24;66.62;101265.69;5079941;28;45556;-75
2023/04/02 07:47:36;;;;;;;;;13.33;13.33;;;;;10.82;66.35;101369.75;5061454;28;45448;-76
2023/04/02 07:50:02;;;;;;;;;14.00;14.00;;;;;10.75;66.63;101341.97;5068395;28;50987;-78
2023/04/02 07:52:28;;;;;;;;;15.33;14.33;;;;;10.58;67.24;101336.28;5057738;28;46006;-77
2023/04/02 07:54:53;;;;;;;;;15.33;14.33;;;;;10.69;67.02;101374.44;5055339;28;45537;-72
2023/04/02 07:57:18;;;;;;;;;21.33;17.67;;;;;10.37;66.74;101308.84;5056264;28;45412;-78
2023/04/02 07:59:45;;;;;;;;;22.67;19.33;;;;;10.62;67.29;101353.69;5049807;28;45409;-76
2023/04/02 08:02:28;;;;;;;;;14.00;10.67;;;;;10.71;66.98;101368.00;5021146;28;45995;-75
2023/04/02 08:04:53;;;;;;;;;13.67;13.33;;;;;10.52;67.61;101354.56;5040267;28;50828;-74
2023/04/02 08:07:19;;;;;;;;;14.67;10.33;;;;;10.65;67.36;101372.03;5041128;28;45361;-71
2023/04/02 08:09:44;;;;;;;;;13.67;12.67;;;;;10.54;67.87;101369.41;5059590;28;45280;-71
2023/04/02 08:12:13;;;;;;;;;9.33;9.33;;;;;10.35;67.53;101340.88;5056103;28;46496;-73
2023/04/02 08:14:39;;;;;;;;;14.33;12.67;;;;;10.58;67.87;101378.81;5037652;28;45325;-71
2023/04/02 08:17:05;;;;;;;;;15.67;13.00;;;;;10.52;67.59;101379.34;5039086;28;45586;-72
2023/04/02 08:19:32;;;;;;;;;19.67;17.00;;;;;10.79;67.37;101412.56;5019934;28;45307;-72
2023/04/02 08:21:57;;;;;;;;;18.00;14.33;;;;;10.66;67.61;101400.31;5020698;28;47866;-72
2023/04/02 08:24:23;;;;;;;;;18.00;16.67;;;;;9.80;67.98;101264.00;5040714;28;45293;-71
2023/04/02 08:26:50;;;;;;;;;14.00;12.33;;;;;10.19;67.95;101326.28;5040463;28;45444;-71
2023/04/02 08:29:15;;;;;;;;;15.33;13.67;;;;;10.74;67.89;101420.94;5042245;28;45455;-73
2023/04/02 08:31:41;;;;;;;;;18.33;18.00;;;;;10.40;67.67;101371.53;5040073;28;47233;-72
2023/04/02 08:34:06;;;;;;;;;28.33;26.00;;;;;10.61;68.25;101398.97;5058543;28;45378;-75
2023/04/02 08:36:35;;;;;;;;;16.33;15.33;;;;;9.81;67.48;101274.53;5058537;28;45243;-72
2023/04/02 08:39:01;;;;;;;;;15.33;13.67;;;;;10.67;67.08;101425.09;5058954;28;45572;-73
2023/04/02 08:41:27;;;;;;;;;13.67;13.67;;;;;10.51;67.05;101398.06;5058541;28;45591;-73
2023/04/02 08:44:02;;;;;;;;;16.67;13.00;;;;;10.67;66.18;101414.44;5041927;28;45457;-72
2023/04/02 08:46:43;;;;;;;;;11.33;11.33;;;;;10.81;66.43;101431.88;5040400;28;45408;-72
2023/04/02 08:49:15;;;;;;;;;12.33;9.67;;;;;10.80;65.60;101430.19;5020959;28;45691;-73
2023/04/02 08:51:41;;;;;;;;;12.33;11.33;;;;;10.91;65.59;101436.31;5040997;28;46589;-70
2023/04/02 08:54:19;;;;;;;;;11.33;11.33;;;;;10.81;64.66;101416.81;5058050;28;45430;-71
2023/04/02 08:56:54;;;;;;;;;15.33;12.00;;;;;11.00;65.26;101442.66;5057281;28;45645;-70
2023/04/02 08:59:31;;;;;;;;;14.67;13.33;;;;;10.05;64.56;101288.44;5038946;28;45584;-74
2023/04/02 09:02:18;;;;;;;;;12.33;12.33;;;;;11.04;65.24;101457.44;5061390;28;46521;-73
2023/04/02 09:04:43;;;;;;;;;16.33;13.00;;;;;11.11;64.78;101455.91;5057903;28;45258;-70
2023/04/02 09:07:15;;;;;;;;;16.00;14.33;;;;;10.99;65.57;101456.94;5040567;28;45436;-74
2023/04/02 09:09:42;;;;;;;;;16.00;16.00;;;;;11.15;64.88;101470.66;5058716;28;45456;-74
2023/04/02 09:12:23;;;;;;;;;13.00;12.00;;;;;11.09;65.02;101457.88;5039799;28;45475;-76
2023/04/02 09:14:57;;;;;;;;;18.67;14.33;;;;;11.18;65.02;101489.00;5041024;28;45584;-76
2023/04/02 09:17:25;;;;;;;;;14.00;11.00;;;;;10.58;64.54;101370.84;5038919;28;45251;-75
2023/04/02 09:20:17;;;;;;;;;13.00;13.00;;;;;11.25;64.77;101503.50;5039683;28;45482;-75
2023/04/02 09:22:45;;;;;;;;;13.00;12.00;;;;;11.13;64.59;101506.34;5043018;28;46462;-73
2023/04/02 09:25:21;;;;;;;;;14.67;11.33;;;;;11.07;64.50;101504.22;5067388;28;45532;-75
2023/04/02 09:27:49;;;;;;;;;13.00;13.00;;;;;10.95;64.06;101476.81;5059815;28;45361;-74
2023/04/02 09:30:30;;;;;;;;;18.00;14.00;;;;;11.09;64.36;101505.78;5078271;28;45285;-74
2023/04/02 09:33:01;;;;;;;;;16.00;16.00;;;;;11.11;64.33;101509.16;5066024;28;45820;-73
2023/04/02 09:35:31;;;;;;;;;12.33;12.00;;;;;11.25;63.96;101508.84;5045989;28;46102;-74
2023/04/02 09:38:09;;;;;;;;;17.33;15.67;;;;;11.33;63.53;101515.31;5057861;28;45590;-73
2023/04/02 09:40:48;;;;;;;;;13.33;12.67;;;;;11.12;63.67;101470.06;5054605;28;45539;-76
2023/04/02 09:43:20;;;;;;;;;14.67;13.00;;;;;11.23;63.24;101508.13;5046334;28;47829;-71
2023/04/02 09:45:57;;;;;;;;;17.00;12.33;;;;;10.49;62.95;101384.91;5035718;28;45591;-72
2023/04/02 09:48:32;;;;;;;;;17.00;14.00;;;;;10.88;63.27;101449.03;5051905;28;45439;-74
2023/04/02 09:51:11;;;;;;;;;12.67;12.67;;;;;11.31;62.97;101527.91;5073658;28;45397;-71
2023/04/02 09:53:40;;;;;;;;;18.00;13.67;;;;;11.14;63.64;101506.22;5059133;28;48615;-73
2023/04/02 09:56:11;;;;;;;;;15.00;14.67;;;;;11.12;63.54;101486.88;5061582;28;45502;-76
2023/04/02 09:58:38;;;;;;;;;14.00;14.00;;;;;11.31;63.21;101519.94;5057191;28;45419;-76
2023/04/02 10:01:04;;;;;;;;;16.00;15.00;;;;;11.12;63.53;101497.53;5055145;28;45323;-72
2023/04/02 10:03:33;;;;;;;;;18.67;18.67;;;;;10.76;63.01;101436.75;5077548;28;46519;-74
2023/04/02 10:06:10;;;;;;;;;21.33;19.67;;;;;11.43;62.81;101543.72;5061377;28;45371;-77
2023/04/02 10:08:38;;;;;;;;;19.67;19.33;;;;;11.24;63.58;101514.28;5027781;28;45442;-73
2023/04/02 10:11:12;;;;;;;;;15.33;14.67;;;;;11.20;63.41;101550.09;5056125;28;45647;-76
2023/04/02 10:13:42;;;;;;;;;24.67;20.67;;;;;11.09;63.47;101550.16;5038756;28;47949;-71
2023/04/02 10:16:10;;;;;;;;;18.33;16.67;;;;;10.94;64.02;101528.31;5055342;28;45375;-73
2023/04/02 10:19:12;;;;;;;;;14.00;14.00;;;;;11.07;63.14;101560.94;5057164;28;45559;-73
2023/04/02 10:21:40;;;;;;;;;20.67;15.00;;;;;10.16;63.07;101440.78;5045377;28;45456;-75
2023/04/02 10:24:14;;;;;;;;;14.00;14.00;;;;;10.87;63.23;101559.09;5039691;28;45882;-73
2023/04/02 10:26:52;;;;;;;;;14.33;13.33;;;;;11.00;63.38;101575.69;5036729;28;45234;-74
2023/04/02 10:29:26;;;;;;;;;15.33;14.33;;;;;11.00;62.67;101585.50;5058600;28;45344;-77
2023/04/02 10:31:58;;;;;;;;;14.00;13.33;;;;;10.59;63.21;101510.78;5057237;28;45604;-72
2023/04/02 10:34:35;;;;;;;;;15.33;13.33;;;;;9.89;63.05;101419.97;5056135;28;46109;-72
2023/04/02 10:37:29;;;;;;;;;13.67;13.67;;;;;10.78;63.88;101583.75;5030538;28;45618;-77
2023/04/02 10:40:11;;;;;;;;;15.33;13.67;;;;;10.58;63.85;101570.25;5047300;28;45438;-74
2023/04/02 10:42:41;;;;;;;;;15.33;14.00;;;;;10.78;63.66;101602.38;5057336;28;45395;-73
2023/04/02 10:45:39;;;;;;;;;18.33;14.00;;;;;10.39;63.73;101535.50;5042979;28;48190;-74
2023/04/02 10:48:07;;;;;;;;;21.33;16.67;;;;;10.81;63.33;101602.13;5052709;28;45392;-74
2023/04/02 10:51:14;;;;;;;;;17.00;14.00;;;;;10.84;63.18;101601.91;5075745;28;45536;-74
2023/04/02 10:54:07;;;;;;;;;18.00;17.00;;;;;10.80;62.67;101573.84;5000782;28;45332;-76
2023/04/02 10:56:32;;;;;;;;;19.00;16.33;;;;;10.51;62.86;101531.00;5016344;28;45865;-78
2023/04/02 10:59:15;;;;;;;;;24.67;19.33;;;;;10.85;62.89;101545.06;5044574;28;45480;-85
2023/04/02 11:01:44;;;;;;;;;24.33;18.33;;;;;10.96;61.70;101542.34;5042172;28;45468;-79
2023/04/02 11:04:21;;;;;;;;;20.33;18.67;;;;;10.97;61.30;101539.56;5038454;28;45476;-75
2023/04/02 11:06:57;;;;;;;;;19.00;16.00;;;;;11.42;61.39;101618.41;5057268;28;45777;-75
2023/04/02 11:09:31;;;;;;;;;17.67;15.33;;;;;11.40;61.47;101621.16;5059741;28;45306;-80
2023/04/02 11:12:00;;;;;;;;;23.33;18.67;;;;;11.35;61.94;101614.53;5060535;28;45526;-75
2023/04/02 11:14:28;;;;;;;;;26.00;20.67;;;;;11.41;61.93;101622.00;5061140;28;45340;-79
2023/04/02 11:16:57;;;;;;;;;27.67;25.00;;;;;11.19;61.36;101581.19;5043556;28;48641;-76
2023/04/02 11:19:29;;;;;;;;;17.00;16.00;;;;;11.26;61.18;101614.34;5042471;28;46134;-76
2023/04/02 11:21:58;;;;;;;;;15.33;15.33;;;;;11.19;61.80;101599.81;5043065;28;45290;-74
2023/04/02 11:24:32;;;;;;;;;20.67;15.67;;;;;10.24;61.51;101465.84;5055680;28;45304;-80
2023/04/02 11:27:15;;;;;;;;;20.00;19.00;;;;;10.43;62.24;101497.06;5039615;28;45762;-75
2023/04/02 11:29:49;;;;;;;;;22.00;20.33;;;;;11.09;62.63;101614.88;5039876;28;45536;-77
2023/04/02 11:32:20;;;;;;;;;20.00;17.00;;;;;11.21;62.14;101639.63;5039980;28;45838;-74
2023/04/02 11:34:49;;;;;;;;;16.33;16.33;;;;;11.14;62.65;101638.44;5039951;28;45223;-74
2023/04/02 11:37:37;;;;;;;;;26.33;24.00;;;;;11.20;62.47;101643.25;5039848;28;45342;-77
2023/04/02 11:40:15;;;;;;;;;11.00;11.00;;;;;11.32;62.10;101641.41;5039925;28;45295;-76
2023/04/02 11:42:41;;;;;;;;;22.67;21.00;;;;;11.43;62.13;101644.03;5039737;28;45358;-76
2023/04/02 11:45:27;;;;;;;;;22.00;17.00;;;;;11.49;61.38;101647.03;5039899;28;45415;-72
2023/04/02 11:47:59;;;;;;;;;28.67;21.67;;;;;11.53;61.28;101647.63;5058673;28;46754;-74